createdAt,value
2019-03-18T00:02:07.801Z,99854.00
2019-03-18T00:04:40.648Z,99860.00
2019-03-18T00:07:13.500Z,99863.00
2019-03-18T00:09:47.329Z,99858.00
2019-03-18T00:12:20.260Z,99853.00
2019-03-18T00:15:01.175Z,99872.00
2019-03-18T00:17:27.982Z,99864.00
2019-03-18T00:20:00.889Z,99874.00
2019-03-18T00:22:33.733Z,99882.00
2019-03-18T00:25:06.927Z,99868.00
2019-03-18T00:27:39.747Z,99882.00
2019-03-18T00:30:13.546Z,99883.00
2019-03-18T00:32:46.352Z,99878.00
2019-03-18T00:35:19.188Z,99894.00
2019-03-18T00:37:52.027Z,99891.00
2019-03-18T00:40:24.882Z,99902.00
2019-03-18T00:42:57.815Z,99896.00
2019-03-18T00:45:30.786Z,99887.00
2019-03-18T00:48:03.629Z,99895.00
2019-03-18T00:50:36.604Z,99899.00
2019-03-18T00:53:09.423Z,99893.00
2019-03-18T00:55:42.255Z,99886.00
2019-03-18T00:58:15.081Z,99892.00
2019-03-18T01:00:49.024Z,99897.00
2019-03-18T01:03:21.835Z,99890.00
2019-03-18T01:05:54.731Z,99891.00
2019-03-18T01:08:27.503Z,99897.00
2019-03-18T01:11:00.377Z,99885.00
2019-03-18T01:13:33.190Z,99882.00
2019-03-18T01:16:06.080Z,99890.00
2019-03-18T01:18:38.910Z,99891.00
2019-03-18T01:21:11.775Z,99884.00
2019-03-18T01:23:44.704Z,99883.00
2019-03-18T01:26:17.579Z,99884.00
2019-03-18T01:28:50.525Z,99874.00
2019-03-18T01:31:23.366Z,99878.00
2019-03-18T01:33:57.205Z,99882.00
2019-03-18T01:36:30.064Z,99882.00
2019-03-18T01:39:04.454Z,99877.00
2019-03-18T01:41:37.277Z,99874.00
2019-03-18T01:44:11.943Z,99889.00
2019-03-18T01:46:44.804Z,99882.00
2019-03-18T01:49:17.671Z,99897.00
2019-03-18T01:51:50.530Z,99902.00
2019-03-18T01:54:23.371Z,99891.00
2019-03-18T01:56:56.376Z,99900.00
2019-03-18T01:59:29.255Z,99902.00
2019-03-18T02:02:02.180Z,99896.00
2019-03-18T02:04:35.219Z,99907.00
2019-03-18T02:07:08.089Z,99907.00
2019-03-18T02:09:40.963Z,99902.00
2019-03-18T02:12:13.787Z,99906.00
2019-03-18T02:14:46.702Z,99899.00
2019-03-18T02:17:19.559Z,99902.00
2019-03-18T02:19:52.518Z,99899.00
2019-03-18T02:22:25.404Z,99907.00
2019-03-18T02:24:58.160Z,99894.00
2019-03-18T02:27:30.965Z,99885.00
2019-03-18T02:30:04.819Z,99897.00
2019-03-18T02:32:37.807Z,99897.00
2019-03-18T02:35:10.646Z,99896.00
2019-03-18T02:37:43.694Z,99898.00
2019-03-18T02:40:16.671Z,99892.00
2019-03-18T02:42:49.657Z,99905.00
2019-03-18T02:45:24.576Z,99925.00
2019-03-18T02:47:57.201Z,99918.00
2019-03-18T02:50:30.033Z,99923.00
2019-03-18T02:53:02.876Z,99929.00
2019-03-18T02:55:35.687Z,99928.00
2019-03-18T02:58:08.497Z,99933.00
2019-03-18T03:00:41.372Z,99934.00
2019-03-18T03:03:14.250Z,99924.00
2019-03-18T03:05:47.086Z,99935.00
2019-03-18T03:08:19.978Z,99933.00
2019-03-18T03:10:53.009Z,99931.00
2019-03-18T03:13:25.841Z,99931.00
2019-03-18T03:15:58.692Z,99928.00
2019-03-18T03:18:31.515Z,99932.00
2019-03-18T03:21:04.365Z,99936.00
2019-03-18T03:23:37.199Z,99943.00
2019-03-18T03:26:10.052Z,99945.00
2019-03-18T03:28:43.069Z,99949.00
2019-03-18T03:31:16.182Z,99946.00
2019-03-18T03:33:49.063Z,99957.00
2019-03-18T03:36:23.019Z,99962.00
2019-03-18T03:38:55.825Z,99959.00
2019-03-18T03:41:28.635Z,99953.00
2019-03-18T03:44:01.430Z,99965.00
2019-03-18T03:46:43.066Z,99961.00
2019-03-18T03:49:08.958Z,99972.00
2019-03-18T03:51:41.788Z,99978.00
2019-03-18T03:54:14.585Z,99984.00
2019-03-18T03:56:47.538Z,99967.00
2019-03-18T03:59:20.362Z,99967.00
2019-03-18T04:01:53.234Z,99970.00
2019-03-18T04:04:26.046Z,99977.00
2019-03-18T04:06:59.898Z,99981.00
2019-03-18T04:09:32.814Z,99967.00
2019-03-18T04:12:05.655Z,99974.00
2019-03-18T04:14:38.498Z,99965.00
2019-03-18T04:17:11.323Z,99975.00
2019-03-18T04:19:44.162Z,99967.00
2019-03-18T04:22:17.056Z,99961.00
2019-03-18T04:24:49.893Z,99966.00
2019-03-18T04:27:24.805Z,99970.00
2019-03-18T04:29:57.676Z,99977.00
2019-03-18T04:32:30.497Z,99985.00
2019-03-18T04:35:03.724Z,99975.00
2019-03-18T04:37:36.532Z,99980.00
2019-03-18T04:40:10.251Z,99984.00
2019-03-18T04:42:44.970Z,100000.00
2019-03-18T04:45:17.772Z,99999.00
2019-03-18T04:47:50.608Z,100000.00
2019-03-18T04:50:23.411Z,100001.00
2019-03-18T04:52:56.222Z,100008.00
2019-03-18T04:55:29.012Z,100020.00
2019-03-18T04:58:01.857Z,100015.00
2019-03-18T05:00:34.639Z,100014.00
2019-03-18T05:03:07.460Z,100012.00
2019-03-18T05:05:40.255Z,100009.00
2019-03-18T05:08:13.171Z,100013.00
2019-03-18T05:10:45.981Z,100013.00
2019-03-18T05:13:18.857Z,100017.00
2019-03-18T05:15:51.715Z,100025.00
2019-03-18T05:18:24.519Z,100034.00
2019-03-18T05:20:57.311Z,100044.00
2019-03-18T05:23:30.123Z,100037.00
2019-03-18T05:26:02.948Z,100038.00
2019-03-18T05:28:35.766Z,100036.00
2019-03-18T05:31:08.623Z,100038.00
2019-03-18T05:33:41.464Z,100042.00
2019-03-18T05:36:14.297Z,100044.00
2019-03-18T05:38:48.217Z,100043.00
2019-03-18T05:41:21.014Z,100046.00
2019-03-18T05:43:53.827Z,100049.00
2019-03-18T05:46:26.632Z,100059.00
2019-03-18T05:48:59.475Z,100059.00
2019-03-18T05:51:32.287Z,100069.00
2019-03-18T05:54:05.123Z,100064.00
2019-03-18T05:56:37.955Z,100070.00
2019-03-18T05:59:10.778Z,100069.00
2019-03-18T06:01:43.698Z,100069.00
2019-03-18T06:04:16.531Z,100075.00
2019-03-18T06:06:49.357Z,100064.00
2019-03-18T06:09:22.174Z,100064.00
2019-03-18T06:11:55.007Z,100077.00
2019-03-18T06:14:27.844Z,100084.00
2019-03-18T06:17:00.661Z,100097.00
2019-03-18T06:19:33.672Z,100106.00
2019-03-18T06:22:06.499Z,100106.00
2019-03-18T06:24:39.313Z,100103.00
2019-03-18T06:27:12.124Z,100109.00
2019-03-18T06:29:44.957Z,100114.00
2019-03-18T06:32:17.755Z,100118.00
2019-03-18T06:34:50.567Z,100124.00
2019-03-18T06:37:23.477Z,100126.00
2019-03-18T06:39:56.301Z,100133.00
2019-03-18T06:42:30.201Z,100139.00
2019-03-18T06:45:03.738Z,100146.00
2019-03-18T06:47:36.543Z,100144.00
2019-03-18T06:50:10.013Z,100158.00
2019-03-18T06:52:42.825Z,100159.00
2019-03-18T06:55:15.668Z,100154.00
2019-03-18T06:57:48.515Z,100163.00
2019-03-18T07:00:21.368Z,100158.00
2019-03-18T07:02:54.190Z,100161.00
2019-03-18T07:05:26.995Z,100166.00
2019-03-18T07:07:59.839Z,100171.00
2019-03-18T07:10:33.648Z,100169.00
2019-03-18T07:13:06.532Z,100175.00
2019-03-18T07:15:39.361Z,100170.00
2019-03-18T07:18:18.206Z,100167.00
2019-03-18T07:20:46.901Z,100175.00
2019-03-18T07:23:19.906Z,100179.00
2019-03-18T07:25:52.705Z,100182.00
2019-03-18T07:28:25.503Z,100184.00
2019-03-18T07:30:58.375Z,100186.00
2019-03-18T07:33:31.189Z,100185.00
2019-03-18T07:36:03.996Z,100184.00
2019-03-18T07:38:36.865Z,100194.00
2019-03-18T07:41:09.790Z,100202.00
2019-03-18T07:43:42.627Z,100206.00
2019-03-18T07:46:15.446Z,100201.00
2019-03-18T07:48:48.562Z,100211.00
2019-03-18T07:51:21.389Z,100210.00
2019-03-18T07:53:54.209Z,100208.00
2019-03-18T07:56:27.063Z,100210.00
2019-03-18T07:58:59.909Z,100210.00
2019-03-18T08:01:33.707Z,100204.00
2019-03-18T08:04:06.551Z,100219.00
2019-03-18T08:06:39.382Z,100226.00
2019-03-18T08:09:12.192Z,100232.00
2019-03-18T08:11:45.005Z,100229.00
2019-03-18T08:14:17.891Z,100244.00
2019-03-18T08:16:50.732Z,100233.00
2019-03-18T08:19:23.562Z,100244.00
2019-03-18T08:21:56.392Z,100250.00
2019-03-18T08:24:29.228Z,100267.00
2019-03-18T08:27:02.044Z,100262.00
2019-03-18T08:29:35.852Z,100266.00
2019-03-18T08:32:11.643Z,100268.00
2019-03-18T08:34:43.422Z,100273.00
2019-03-18T08:37:16.216Z,100263.00
2019-03-18T08:39:49.088Z,100269.00
2019-03-18T08:42:21.916Z,100270.00
2019-03-18T08:44:54.792Z,100272.00
2019-03-18T08:47:27.688Z,100281.00
2019-03-18T08:50:00.545Z,100271.00
2019-03-18T08:52:33.360Z,100287.00
2019-03-18T08:55:06.389Z,100278.00
2019-03-18T08:57:39.400Z,100271.00
2019-03-18T09:00:12.307Z,100288.00
2019-03-18T09:02:45.082Z,100292.00
2019-03-18T09:05:17.950Z,100291.00
2019-03-18T09:07:50.770Z,100294.00
2019-03-18T09:10:23.604Z,100299.00
2019-03-18T09:12:56.428Z,100302.00
2019-03-18T09:15:29.266Z,100300.00
2019-03-18T09:18:02.137Z,100290.00
2019-03-18T09:20:34.962Z,100313.00
2019-03-18T09:23:07.808Z,100311.00
2019-03-18T09:25:40.675Z,100309.00
2019-03-18T09:28:13.489Z,100320.00
2019-03-18T09:30:46.309Z,100337.00
2019-03-18T09:33:19.162Z,100326.00
2019-03-18T09:35:52.022Z,100337.00
2019-03-18T09:38:24.862Z,100346.00
2019-03-18T09:40:57.705Z,100354.00
2019-03-18T09:43:30.534Z,100353.00
2019-03-18T09:46:03.350Z,100348.00
2019-03-18T09:48:36.184Z,100349.00
2019-03-18T09:51:09.766Z,100348.00
2019-03-18T09:53:42.634Z,100361.00
2019-03-18T09:56:15.457Z,100359.00
2019-03-18T09:58:48.364Z,100352.00
2019-03-18T10:01:21.175Z,100371.00
2019-03-18T10:03:54.131Z,100361.00
2019-03-18T10:06:27.022Z,100368.00
2019-03-18T10:08:59.895Z,100368.00
2019-03-18T10:11:32.858Z,100375.00
2019-03-18T10:14:05.698Z,100375.00
2019-03-18T10:16:38.523Z,100387.00
2019-03-18T10:19:11.384Z,100391.00
2019-03-18T10:21:44.161Z,100385.00
2019-03-18T10:24:17.007Z,100377.00
2019-03-18T10:26:49.823Z,100383.00
2019-03-18T10:29:22.704Z,100392.00
2019-03-18T10:31:55.536Z,100402.00
2019-03-18T10:34:28.411Z,100406.00
2019-03-18T10:37:01.252Z,100403.00
2019-03-18T10:39:34.133Z,100398.00
2019-03-18T10:42:06.971Z,100410.00
2019-03-18T10:44:39.836Z,100401.00
2019-03-18T10:47:12.689Z,100391.00
2019-03-18T10:49:46.683Z,100397.00
2019-03-18T10:52:19.714Z,100393.00
2019-03-18T10:54:52.576Z,100388.00
2019-03-18T10:57:25.454Z,100393.00
2019-03-18T11:00:01.063Z,100402.00
2019-03-18T11:02:33.034Z,100396.00
2019-03-18T11:05:08.160Z,100402.00
2019-03-18T11:07:41.341Z,100398.00
2019-03-18T11:10:14.422Z,100385.00
2019-03-18T11:12:47.275Z,100390.00
2019-03-18T11:15:22.241Z,100394.00
2019-03-18T11:17:55.049Z,100395.00
2019-03-18T11:20:27.995Z,100391.00
2019-03-18T11:23:00.917Z,100376.00
2019-03-18T11:25:33.830Z,100393.00
2019-03-18T11:28:06.634Z,100395.00
2019-03-18T11:30:39.500Z,100401.00
2019-03-18T11:33:12.312Z,100404.00
2019-03-18T11:35:45.159Z,100404.00
2019-03-18T11:38:18.038Z,100393.00
2019-03-18T11:40:50.864Z,100384.00
2019-03-18T11:43:23.692Z,100380.00
2019-03-18T11:45:56.646Z,100379.00
2019-03-18T11:48:29.497Z,100376.00
2019-03-18T11:51:02.846Z,100378.00
2019-03-18T11:53:36.824Z,100380.00
2019-03-18T11:56:09.837Z,100391.00
2019-03-18T11:58:42.714Z,100392.00
2019-03-18T12:01:15.728Z,100386.00
2019-03-18T12:03:48.569Z,100393.00
2019-03-18T12:06:22.058Z,100388.00
2019-03-18T12:08:54.899Z,100383.00
2019-03-18T12:11:27.727Z,100388.00
2019-03-18T12:14:00.539Z,100382.00
2019-03-18T12:16:33.523Z,100387.00
2019-03-18T12:19:06.338Z,100388.00
2019-03-18T12:21:39.225Z,100387.00
2019-03-18T12:24:12.075Z,100389.00
2019-03-18T12:26:44.903Z,100381.00
2019-03-18T12:29:17.750Z,100383.00
2019-03-18T12:31:50.586Z,100380.00
2019-03-18T12:34:23.419Z,100377.00
2019-03-18T12:36:56.296Z,100379.00
2019-03-18T12:39:29.207Z,100383.00
2019-03-18T12:42:02.049Z,100379.00
2019-03-18T12:44:34.860Z,100382.00
2019-03-18T12:47:07.693Z,100382.00
2019-03-18T12:49:40.507Z,100383.00
2019-03-18T12:52:13.445Z,100388.00
2019-03-18T12:54:46.291Z,100388.00
2019-03-18T12:57:19.206Z,100375.00
2019-03-18T12:59:52.031Z,100377.00
2019-03-18T13:02:24.879Z,100390.00
2019-03-18T13:04:57.782Z,100388.00
2019-03-18T13:07:30.620Z,100393.00
2019-03-18T13:10:05.052Z,100385.00
2019-03-18T13:12:37.933Z,100395.00
2019-03-18T13:15:12.828Z,100387.00
2019-03-18T13:17:45.689Z,100386.00
2019-03-18T13:20:18.674Z,100383.00
2019-03-18T13:22:53.957Z,100385.00
2019-03-18T13:25:26.548Z,100387.00
2019-03-18T13:27:59.631Z,100389.00
2019-03-18T13:30:32.539Z,100396.00
2019-03-18T13:33:05.494Z,100389.00
2019-03-18T13:35:38.377Z,100387.00
2019-03-18T13:38:11.438Z,100398.00
2019-03-18T13:40:45.924Z,100411.00
2019-03-18T13:43:18.972Z,100414.00
2019-03-18T13:45:55.642Z,100397.00
2019-03-18T13:48:26.657Z,100400.00
2019-03-18T13:51:00.582Z,100395.00
2019-03-18T13:53:33.443Z,100391.00
2019-03-18T13:56:06.452Z,100400.00
2019-03-18T13:58:39.320Z,100398.00
2019-03-18T14:01:12.145Z,100411.00
2019-03-18T14:03:45.052Z,100411.00
2019-03-18T14:06:17.894Z,100413.00
2019-03-18T14:08:50.777Z,100405.00
2019-03-18T14:11:23.600Z,100408.00
2019-03-18T14:13:57.497Z,100413.00
2019-03-18T14:16:30.319Z,100404.00
2019-03-18T14:19:03.197Z,100412.00
2019-03-18T14:21:36.255Z,100406.00
2019-03-18T14:24:09.154Z,100407.00
2019-03-18T14:26:42.148Z,100418.00
2019-03-18T14:29:16.233Z,100412.00
2019-03-18T14:31:49.084Z,100407.00
2019-03-18T14:34:22.002Z,100403.00
2019-03-18T14:36:54.896Z,100408.00
2019-03-18T14:39:27.778Z,100406.00
2019-03-18T14:42:00.601Z,100409.00
2019-03-18T14:44:33.490Z,100411.00
2019-03-18T14:47:06.312Z,100423.00
2019-03-18T14:49:39.222Z,100421.00
2019-03-18T14:52:12.035Z,100422.00
2019-03-18T14:54:44.918Z,100428.00
2019-03-18T14:57:17.787Z,100423.00
2019-03-18T14:59:50.650Z,100427.00
2019-03-18T15:02:23.527Z,100429.00
2019-03-18T15:04:56.346Z,100439.00
2019-03-18T15:07:29.199Z,100431.00
2019-03-18T15:10:02.160Z,100428.00
2019-03-18T15:12:35.054Z,100431.00
2019-03-18T15:15:13.801Z,100430.00
2019-03-18T15:17:47.656Z,100442.00
2019-03-18T15:20:20.705Z,100449.00
2019-03-18T15:22:53.555Z,100440.00
2019-03-18T15:25:26.485Z,100443.00
2019-03-18T15:27:59.603Z,100439.00
2019-03-18T15:30:32.676Z,100450.00
2019-03-18T15:33:05.578Z,100452.00
2019-03-18T15:35:38.494Z,100458.00
2019-03-18T15:38:11.370Z,100457.00
2019-03-18T15:40:44.339Z,100454.00
2019-03-18T15:43:17.219Z,100473.00
2019-03-18T15:45:50.071Z,100460.00
2019-03-18T15:48:22.906Z,100456.00
2019-03-18T15:50:55.855Z,100450.00
2019-03-18T15:53:28.795Z,100459.00
2019-03-18T15:56:01.624Z,100447.00
2019-03-18T15:58:34.477Z,100450.00
2019-03-18T16:01:07.341Z,100446.00
2019-03-18T16:03:40.254Z,100450.00
2019-03-18T16:06:13.268Z,100460.00
2019-03-18T16:08:46.132Z,100470.00
2019-03-18T16:11:19.169Z,100472.00
2019-03-18T16:13:52.059Z,100473.00
2019-03-18T16:16:25.008Z,100476.00
2019-03-18T16:18:57.893Z,100480.00
2019-03-18T16:21:30.975Z,100477.00
2019-03-18T16:24:04.188Z,100495.00
2019-03-18T16:26:37.026Z,100490.00
2019-03-18T16:29:09.893Z,100495.00
2019-03-18T16:31:42.739Z,100495.00
2019-03-18T16:34:15.729Z,100497.00
2019-03-18T16:36:48.688Z,100496.00
2019-03-18T16:39:21.759Z,100505.00
2019-03-18T16:41:54.642Z,100504.00
2019-03-18T16:44:27.498Z,100505.00
2019-03-18T16:47:01.511Z,100504.00
2019-03-18T16:49:34.483Z,100512.00
2019-03-18T16:52:07.571Z,100518.00
2019-03-18T16:54:40.430Z,100519.00
2019-03-18T16:57:14.393Z,100514.00
2019-03-18T16:59:47.269Z,100520.00
2019-03-18T17:02:20.103Z,100529.00
2019-03-18T17:04:53.005Z,100531.00
2019-03-18T17:07:25.897Z,100526.00
2019-03-18T17:09:58.868Z,100535.00
2019-03-18T17:12:31.732Z,100534.00
2019-03-18T17:15:05.037Z,100539.00
2019-03-18T17:17:37.850Z,100538.00
2019-03-18T17:20:11.077Z,100545.00
2019-03-18T17:22:49.384Z,100546.00
2019-03-18T17:25:18.709Z,100550.00
2019-03-18T17:27:51.437Z,100557.00
2019-03-18T17:30:26.640Z,100556.00
2019-03-18T17:32:58.983Z,100560.00
2019-03-18T17:35:32.039Z,100569.00
2019-03-18T17:38:05.133Z,100562.00
2019-03-18T17:40:37.977Z,100567.00
2019-03-18T17:43:10.825Z,100568.00
2019-03-18T17:45:43.712Z,100580.00
2019-03-18T17:48:16.724Z,100586.00
2019-03-18T17:50:49.671Z,100590.00
2019-03-18T17:53:25.132Z,100598.00
2019-03-18T17:55:58.019Z,100594.00
2019-03-18T17:58:30.932Z,100597.00
2019-03-18T18:01:03.994Z,100603.00
2019-03-18T18:03:36.872Z,100607.00
2019-03-18T18:06:09.735Z,100613.00
2019-03-18T18:08:42.553Z,100606.00
2019-03-18T18:11:15.607Z,100612.00
2019-03-18T18:13:48.553Z,100611.00
2019-03-18T18:16:21.426Z,100626.00
2019-03-18T18:18:54.293Z,100628.00
2019-03-18T18:21:27.182Z,100629.00
2019-03-18T18:24:00.028Z,100623.00
2019-03-18T18:26:32.998Z,100632.00
2019-03-18T18:29:05.872Z,100632.00
2019-03-18T18:31:38.767Z,100651.00
2019-03-18T18:34:11.657Z,100649.00
2019-03-18T18:36:44.722Z,100648.00
2019-03-18T18:39:17.608Z,100641.00
2019-03-18T18:41:50.454Z,100644.00
2019-03-18T18:44:25.102Z,100646.00
2019-03-18T18:46:57.972Z,100661.00
2019-03-18T18:49:30.813Z,100659.00
2019-03-18T18:52:03.695Z,100660.00
2019-03-18T18:54:36.690Z,100667.00
2019-03-18T18:57:09.615Z,100683.00
2019-03-18T18:59:42.627Z,100677.00
2019-03-18T19:02:15.497Z,100680.00
2019-03-18T19:04:50.130Z,100675.00
2019-03-18T19:07:23.012Z,100688.00
2019-03-18T19:09:55.991Z,100695.00
2019-03-18T19:12:29.007Z,100697.00
2019-03-18T19:15:01.836Z,100697.00
2019-03-18T19:17:34.804Z,100699.00
2019-03-18T19:20:08.046Z,100695.00
2019-03-18T19:22:40.948Z,100697.00
2019-03-18T19:25:13.854Z,100702.00
2019-03-18T19:27:46.739Z,100702.00
2019-03-18T19:30:19.844Z,100711.00
2019-03-18T19:32:52.717Z,100717.00
2019-03-18T19:35:25.730Z,100728.00
2019-03-18T19:37:58.637Z,100730.00
2019-03-18T19:40:31.596Z,100724.00
2019-03-18T19:43:04.511Z,100716.00
2019-03-18T19:45:37.396Z,100723.00
2019-03-18T19:48:10.466Z,100715.00
2019-03-18T19:50:43.365Z,100724.00
2019-03-18T19:53:17.551Z,100719.00
2019-03-18T19:55:50.474Z,100730.00
2019-03-18T19:58:23.398Z,100727.00
2019-03-18T20:00:56.269Z,100734.00
2019-03-18T20:03:29.146Z,100726.00
2019-03-18T20:06:02.238Z,100737.00
2019-03-18T20:08:35.088Z,100741.00
2019-03-18T20:11:07.995Z,100741.00
2019-03-18T20:13:40.971Z,100743.00
2019-03-18T20:16:13.851Z,100752.00
2019-03-18T20:18:46.692Z,100752.00
2019-03-18T20:21:19.604Z,100761.00
2019-03-18T20:24:00.679Z,100755.00
2019-03-18T20:26:30.357Z,100767.00
2019-03-18T20:29:03.350Z,100761.00
2019-03-18T20:31:36.218Z,100770.00
2019-03-18T20:34:09.195Z,100772.00
2019-03-18T20:36:42.327Z,100775.00
2019-03-18T20:39:15.368Z,100775.00
2019-03-18T20:41:48.203Z,100774.00
2019-03-18T20:44:21.046Z,100774.00
2019-03-18T20:46:53.882Z,100764.00
2019-03-18T20:49:26.843Z,100779.00
2019-03-18T20:51:59.709Z,100772.00
2019-03-18T20:54:33.658Z,100777.00
2019-03-18T20:57:06.657Z,100785.00
2019-03-18T20:59:39.507Z,100788.00
2019-03-18T21:02:12.482Z,100793.00
2019-03-18T21:04:45.340Z,100797.00
2019-03-18T21:07:18.275Z,100797.00
2019-03-18T21:09:51.253Z,100797.00
2019-03-18T21:12:24.252Z,100804.00
2019-03-18T21:14:57.100Z,100800.00
2019-03-18T21:17:30.090Z,100808.00
2019-03-18T21:20:04.194Z,100804.00
2019-03-18T21:22:38.159Z,100804.00
2019-03-18T21:25:11.396Z,100808.00
2019-03-18T21:27:44.337Z,100808.00
2019-03-18T21:30:17.485Z,100798.00
2019-03-18T21:32:51.096Z,100811.00
2019-03-18T21:35:23.967Z,100815.00
2019-03-18T21:37:56.852Z,100813.00
2019-03-18T21:40:29.707Z,100820.00
2019-03-18T21:43:07.248Z,100823.00
2019-03-18T21:45:40.076Z,100821.00
2019-03-18T21:48:12.939Z,100830.00
2019-03-18T21:50:45.837Z,100830.00
2019-03-18T21:53:18.679Z,100836.00
2019-03-18T21:55:51.509Z,100829.00
2019-03-18T21:58:24.380Z,100827.00
2019-03-18T22:00:58.351Z,100836.00
2019-03-18T22:03:31.227Z,100844.00
2019-03-18T22:06:04.107Z,100844.00
2019-03-18T22:08:36.938Z,100853.00
2019-03-18T22:11:09.768Z,100853.00
2019-03-18T22:13:42.633Z,100839.00
2019-03-18T22:16:15.488Z,100843.00
2019-03-18T22:18:48.464Z,100846.00
2019-03-18T22:21:21.328Z,100849.00
2019-03-18T22:23:54.220Z,100855.00
2019-03-18T22:26:27.081Z,100854.00
2019-03-18T22:28:59.949Z,100850.00
2019-03-18T22:31:32.784Z,100847.00
2019-03-18T22:34:06.927Z,100843.00
2019-03-18T22:36:39.853Z,100844.00
2019-03-18T22:39:12.731Z,100852.00
2019-03-18T22:41:45.583Z,100862.00
2019-03-18T22:44:18.518Z,100863.00
2019-03-18T22:46:51.356Z,100855.00
2019-03-18T22:49:24.196Z,100857.00
2019-03-18T22:51:57.050Z,100861.00
2019-03-18T22:54:30.165Z,100857.00
2019-03-18T22:57:03.034Z,100866.00
2019-03-18T22:59:35.908Z,100867.00
2019-03-18T23:02:08.744Z,100863.00
2019-03-18T23:04:41.713Z,100864.00
2019-03-18T23:07:14.561Z,100868.00
2019-03-18T23:09:47.530Z,100867.00
2019-03-18T23:12:20.361Z,100874.00
2019-03-18T23:14:53.207Z,100867.00
2019-03-18T23:17:26.078Z,100866.00
2019-03-18T23:19:59.860Z,100874.00
2019-03-18T23:22:32.900Z,100879.00
2019-03-18T23:25:07.673Z,100882.00
2019-03-18T23:27:41.907Z,100890.00
2019-03-18T23:30:14.860Z,100892.00
2019-03-18T23:32:48.316Z,100883.00
2019-03-18T23:35:21.255Z,100881.00
2019-03-18T23:37:54.396Z,100880.00
2019-03-18T23:40:27.261Z,100886.00
2019-03-18T23:43:00.105Z,100890.00
2019-03-18T23:45:32.925Z,100897.00
2019-03-18T23:48:05.881Z,100896.00
2019-03-18T23:50:39.137Z,100895.00
2019-03-18T23:53:11.986Z,100897.00
2019-03-18T23:55:44.799Z,100896.00
2019-03-18T23:58:17.659Z,100894.00
